This is the latest recevied weather packets stored in our database for station/object VE7OTD. If no packets are shown the sender has not sent any weather packets the latest 1 day(s).
| Time | Temp. | Humidity | Pressure | Rain* | Wind** | Luminosity | Snow |
|---|---|---|---|---|---|---|---|
| 1778011890 | 21.67° C | 55% | 1013.8 hPa | 0 mm | 1.34 m/s, 112° | - | - |
| 1778010075 | 22.22° C | 56% | 1013.9 hPa | 0 mm | 1.79 m/s, 180° | - | - |
| 1778008261 | 22.22° C | 53% | 1013.7 hPa | 0 mm | 1.79 m/s, 112° | - | - |
| 1778006445 | 21.11° C | 59% | 1013.7 hPa | 0 mm | 1.34 m/s, 90° | - | - |
| 1778004630 | 20.56° C | 63% | 1013.7 hPa | 0 mm | 1.34 m/s, 112° | - | - |
| 1778002816 | 20° C | 64% | 1013.5 hPa | 0 mm | 1.79 m/s, 112° | - | - |
| 1778000983 | 18.89° C | 68% | 1013.6 hPa | 0 mm | 1.79 m/s, 225° | - | - |
| 1777999172 | 19.44° C | 69% | 1013.5 hPa | 0 mm | 1.34 m/s, 112° | - | - |
| 1777997370 | 18.89° C | 70% | 1013.4 hPa | 0 mm | 0.89 m/s, 180° | - | - |
| 1777995560 | 19.44° C | 62% | 1013.3 hPa | 0 mm | 0.89 m/s, 202° | - | - |
| 1777993755 | 18.33° C | 67% | 1012.9 hPa | 0 mm | 0.89 m/s, 180° | - | - |
| 1777991941 | 13.89° C | 80% | 1012.6 hPa | 0 mm | 0 m/s | - | - |
| 1777990125 | 12.22° C | 91% | 1012.3 hPa | 0 mm | 0 m/s | - | - |
| 1777988310 | 11.67° C | 88% | 1012.1 hPa | 0 mm | 0 m/s | - | - |
| 1777986496 | 11.67° C | 86% | 1011.8 hPa | 0 mm | 0 m/s | - | - |
| 1777984681 | 12.22° C | 83% | 1011.5 hPa | 0 mm | 0 m/s | - | - |
| 1777982850 | 13.33° C | 80% | 1011.1 hPa | 0 mm | 0.45 m/s, 22° | - | - |
| 1777981035 | 13.33° C | 78% | 1010.9 hPa | 0 mm | 0 m/s | - | - |
| 1777979221 | 13.89° C | 76% | 1010.7 hPa | 0 mm | 0.45 m/s, 338° | - | - |
| 1777977405 | 13.33° C | 78% | 1010.4 hPa | 0 mm | 0 m/s | - | - |
| 1777975591 | 14.44° C | 76% | 1010.2 hPa | 0 mm | 0 m/s | - | - |
| 1777973775 | 13.33° C | 83% | 1010 hPa | 0 mm | 0 m/s | - | - |
* Rain latest hour (hover to see other rain measurements)
** Current wind speed in m/s (hover to see current wind gust speed)